sensor_id;sensor_type;location;lat;lon;timestamp;P1;durP1;ratioP1;P2;durP2;ratioP2
18473;SDS011;30265;52.408;13.500;2023-01-28T00:07:13;16.50;;;5.13;;
18473;SDS011;30265;52.408;13.500;2023-01-28T00:17:35;10.52;;;4.13;;
18473;SDS011;30265;52.408;13.500;2023-01-28T00:27:58;5.80;;;3.10;;
18473;SDS011;30265;52.408;13.500;2023-01-28T00:38:20;5.50;;;3.83;;
18473;SDS011;30265;52.408;13.500;2023-01-28T00:48:43;3.08;;;2.38;;
18473;SDS011;30265;52.408;13.500;2023-01-28T00:59:05;16.25;;;4.05;;
18473;SDS011;30265;52.408;13.500;2023-01-28T01:09:29;12.52;;;2.88;;
18473;SDS011;30265;52.408;13.500;2023-01-28T01:19:50;14.35;;;4.38;;
18473;SDS011;30265;52.408;13.500;2023-01-28T01:30:14;6.93;;;2.67;;
18473;SDS011;30265;52.408;13.500;2023-01-28T01:40:36;6.13;;;2.60;;
18473;SDS011;30265;52.408;13.500;2023-01-28T01:51:00;11.02;;;2.97;;
18473;SDS011;30265;52.408;13.500;2023-01-28T02:01:28;3.90;;;2.75;;
18473;SDS011;30265;52.408;13.500;2023-01-28T02:11:54;15.88;;;4.47;;
18473;SDS011;30265;52.408;13.500;2023-01-28T02:33:19;23.27;;;7.05;;
18473;SDS011;30265;52.408;13.500;2023-01-28T02:43:50;7.28;;;4.22;;
18473;SDS011;30265;52.408;13.500;2023-01-28T02:54:13;13.80;;;5.55;;
18473;SDS011;30265;52.408;13.500;2023-01-28T03:04:52;10.48;;;5.38;;
18473;SDS011;30265;52.408;13.500;2023-01-28T03:15:21;11.38;;;4.65;;
18473;SDS011;30265;52.408;13.500;2023-01-28T03:26:03;22.75;;;6.63;;
18473;SDS011;30265;52.408;13.500;2023-01-28T03:36:46;16.38;;;5.65;;
18473;SDS011;30265;52.408;13.500;2023-01-28T03:47:35;24.17;;;7.75;;
18473;SDS011;30265;52.408;13.500;2023-01-28T03:58:03;18.00;;;6.07;;
18473;SDS011;30265;52.408;13.500;2023-01-28T04:08:27;11.80;;;4.68;;
18473;SDS011;30265;52.408;13.500;2023-01-28T04:19:09;12.40;;;5.82;;
18473;SDS011;30265;52.408;13.500;2023-01-28T04:29:35;5.80;;;2.85;;
18473;SDS011;30265;52.408;13.500;2023-01-28T04:40:21;3.33;;;3.00;;
18473;SDS011;30265;52.408;13.500;2023-01-28T04:50:49;6.60;;;3.92;;
18473;SDS011;30265;52.408;13.500;2023-01-28T05:01:22;7.28;;;3.20;;
18473;SDS011;30265;52.408;13.500;2023-01-28T05:11:46;5.82;;;3.35;;
18473;SDS011;30265;52.408;13.500;2023-01-28T05:22:09;3.63;;;2.78;;
18473;SDS011;30265;52.408;13.500;2023-01-28T05:32:36;4.88;;;2.88;;
18473;SDS011;30265;52.408;13.500;2023-01-28T05:43:01;8.02;;;3.05;;
18473;SDS011;30265;52.408;13.500;2023-01-28T05:53:53;4.00;;;2.17;;
18473;SDS011;30265;52.408;13.500;2023-01-28T06:04:16;9.40;;;3.72;;
18473;SDS011;30265;52.408;13.500;2023-01-28T06:14:39;6.35;;;2.83;;
18473;SDS011;30265;52.408;13.500;2023-01-28T06:25:25;6.93;;;3.38;;
18473;SDS011;30265;52.408;13.500;2023-01-28T06:35:51;6.80;;;3.35;;
18473;SDS011;30265;52.408;13.500;2023-01-28T06:46:14;10.10;;;4.63;;
18473;SDS011;30265;52.408;13.500;2023-01-28T06:56:36;8.07;;;4.18;;
18473;SDS011;30265;52.408;13.500;2023-01-28T07:06:59;8.27;;;5.05;;
18473;SDS011;30265;52.408;13.500;2023-01-28T07:17:21;8.50;;;3.28;;
18473;SDS011;30265;52.408;13.500;2023-01-28T07:27:48;15.20;;;5.28;;
18473;SDS011;30265;52.408;13.500;2023-01-28T07:38:12;11.18;;;5.38;;
18473;SDS011;30265;52.408;13.500;2023-01-28T07:48:35;16.20;;;5.57;;
18473;SDS011;30265;52.408;13.500;2023-01-28T07:58:57;14.32;;;7.22;;
18473;SDS011;30265;52.408;13.500;2023-01-28T08:09:20;19.00;;;6.32;;
18473;SDS011;30265;52.408;13.500;2023-01-28T08:19:42;29.58;;;8.43;;
18473;SDS011;30265;52.408;13.500;2023-01-28T08:30:05;19.58;;;8.95;;
18473;SDS011;30265;52.408;13.500;2023-01-28T08:40:29;19.08;;;8.70;;
18473;SDS011;30265;52.408;13.500;2023-01-28T08:50:52;17.05;;;7.35;;
18473;SDS011;30265;52.408;13.500;2023-01-28T09:01:14;23.00;;;9.20;;
18473;SDS011;30265;52.408;13.500;2023-01-28T09:11:37;24.73;;;9.40;;
18473;SDS011;30265;52.408;13.500;2023-01-28T09:21:59;28.08;;;8.82;;
18473;SDS011;30265;52.408;13.500;2023-01-28T09:32:22;29.98;;;10.18;;
18473;SDS011;30265;52.408;13.500;2023-01-28T09:42:47;41.03;;;10.65;;
18473;SDS011;30265;52.408;13.500;2023-01-28T09:53:21;22.58;;;9.35;;
18473;SDS011;30265;52.408;13.500;2023-01-28T10:03:47;23.52;;;9.60;;
18473;SDS011;30265;52.408;13.500;2023-01-28T10:14:18;29.38;;;11.15;;
18473;SDS011;30265;52.408;13.500;2023-01-28T10:24:48;18.15;;;9.40;;
18473;SDS011;30265;52.408;13.500;2023-01-28T10:35:18;33.55;;;11.48;;
18473;SDS011;30265;52.408;13.500;2023-01-28T10:45:42;13.88;;;5.05;;
18473;SDS011;30265;52.408;13.500;2023-01-28T10:56:15;6.88;;;2.63;;
18473;SDS011;30265;52.408;13.500;2023-01-28T11:06:53;5.00;;;1.90;;
18473;SDS011;30265;52.408;13.500;2023-01-28T11:17:18;3.53;;;1.75;;
18473;SDS011;30265;52.408;13.500;2023-01-28T11:27:45;2.40;;;1.80;;
18473;SDS011;30265;52.408;13.500;2023-01-28T11:38:16;3.72;;;1.65;;
18473;SDS011;30265;52.408;13.500;2023-01-28T11:48:40;6.55;;;3.25;;
18473;SDS011;30265;52.408;13.500;2023-01-28T11:59:18;4.03;;;2.53;;
18473;SDS011;30265;52.408;13.500;2023-01-28T12:09:59;8.50;;;2.65;;
18473;SDS011;30265;52.408;13.500;2023-01-28T12:20:26;9.73;;;2.70;;
18473;SDS011;30265;52.408;13.500;2023-01-28T12:30:56;5.88;;;2.80;;
18473;SDS011;30265;52.408;13.500;2023-01-28T12:41:31;7.93;;;3.72;;
18473;SDS011;30265;52.408;13.500;2023-01-28T12:51:58;8.63;;;4.28;;
18473;SDS011;30265;52.408;13.500;2023-01-28T13:12:48;3.08;;;1.77;;
18473;SDS011;30265;52.408;13.500;2023-01-28T13:23:22;2.15;;;1.48;;
18473;SDS011;30265;52.408;13.500;2023-01-28T13:33:46;4.07;;;2.28;;
18473;SDS011;30265;52.408;13.500;2023-01-28T13:44:26;6.03;;;1.85;;
18473;SDS011;30265;52.408;13.500;2023-01-28T13:54:50;1.88;;;1.63;;
18473;SDS011;30265;52.408;13.500;2023-01-28T14:05:22;3.15;;;1.50;;
18473;SDS011;30265;52.408;13.500;2023-01-28T14:26:51;3.83;;;2.10;;
18473;SDS011;30265;52.408;13.500;2023-01-28T14:37:18;2.20;;;1.55;;
18473;SDS011;30265;52.408;13.500;2023-01-28T14:47:48;4.90;;;2.38;;
18473;SDS011;30265;52.408;13.500;2023-01-28T14:58:18;3.17;;;1.98;;
18473;SDS011;30265;52.408;13.500;2023-01-28T15:08:44;5.43;;;2.28;;
18473;SDS011;30265;52.408;13.500;2023-01-28T15:19:06;3.22;;;2.38;;
18473;SDS011;30265;52.408;13.500;2023-01-28T15:29:31;3.20;;;1.80;;
18473;SDS011;30265;52.408;13.500;2023-01-28T15:40:01;2.35;;;1.80;;
18473;SDS011;30265;52.408;13.500;2023-01-28T15:50:26;4.43;;;2.20;;
18473;SDS011;30265;52.408;13.500;2023-01-28T16:00:48;3.65;;;2.17;;
18473;SDS011;30265;52.408;13.500;2023-01-28T16:11:12;6.35;;;2.28;;
18473;SDS011;30265;52.408;13.500;2023-01-28T16:21:43;4.85;;;2.92;;
18473;SDS011;30265;52.408;13.500;2023-01-28T16:42:52;3.67;;;2.22;;
18473;SDS011;30265;52.408;13.500;2023-01-28T16:53:18;2.65;;;2.00;;
18473;SDS011;30265;52.408;13.500;2023-01-28T17:03:42;2.03;;;1.50;;
18473;SDS011;30265;52.408;13.500;2023-01-28T17:14:05;2.00;;;1.73;;
18473;SDS011;30265;52.408;13.500;2023-01-28T17:24:28;4.57;;;2.30;;
18473;SDS011;30265;52.408;13.500;2023-01-28T17:34:51;4.13;;;2.35;;
18473;SDS011;30265;52.408;13.500;2023-01-28T17:45:12;1.83;;;1.50;;
18473;SDS011;30265;52.408;13.500;2023-01-28T17:55:36;5.05;;;2.35;;
18473;SDS011;30265;52.408;13.500;2023-01-28T18:05:58;2.63;;;1.88;;
18473;SDS011;30265;52.408;13.500;2023-01-28T18:16:21;5.60;;;2.83;;
18473;SDS011;30265;52.408;13.500;2023-01-28T18:26:44;4.38;;;2.70;;
18473;SDS011;30265;52.408;13.500;2023-01-28T18:37:07;4.03;;;2.10;;
18473;SDS011;30265;52.408;13.500;2023-01-28T18:47:29;5.05;;;3.58;;
18473;SDS011;30265;52.408;13.500;2023-01-28T18:57:51;2.63;;;2.15;;
18473;SDS011;30265;52.408;13.500;2023-01-28T19:08:13;5.13;;;2.92;;
18473;SDS011;30265;52.408;13.500;2023-01-28T19:18:36;5.40;;;3.10;;
18473;SDS011;30265;52.408;13.500;2023-01-28T19:28:58;2.53;;;2.33;;
18473;SDS011;30265;52.408;13.500;2023-01-28T19:39:24;3.08;;;2.35;;
18473;SDS011;30265;52.408;13.500;2023-01-28T19:49:46;4.03;;;2.88;;
18473;SDS011;30265;52.408;13.500;2023-01-28T20:00:10;1.92;;;1.83;;
18473;SDS011;30265;52.408;13.500;2023-01-28T20:10:32;5.10;;;3.63;;
18473;SDS011;30265;52.408;13.500;2023-01-28T20:20:55;5.35;;;2.92;;
18473;SDS011;30265;52.408;13.500;2023-01-28T20:31:17;3.55;;;2.92;;
18473;SDS011;30265;52.408;13.500;2023-01-28T20:41:41;4.85;;;2.70;;
18473;SDS011;30265;52.408;13.500;2023-01-28T20:52:03;8.10;;;3.28;;
18473;SDS011;30265;52.408;13.500;2023-01-28T21:02:27;3.60;;;2.55;;
18473;SDS011;30265;52.408;13.500;2023-01-28T21:12:49;5.75;;;2.55;;
18473;SDS011;30265;52.408;13.500;2023-01-28T21:23:11;3.30;;;2.50;;
18473;SDS011;30265;52.408;13.500;2023-01-28T21:33:34;2.63;;;2.20;;
18473;SDS011;30265;52.408;13.500;2023-01-28T21:43:58;2.38;;;2.17;;
18473;SDS011;30265;52.408;13.500;2023-01-28T21:54:19;6.68;;;2.58;;
18473;SDS011;30265;52.408;13.500;2023-01-28T22:04:43;3.92;;;2.47;;
18473;SDS011;30265;52.408;13.500;2023-01-28T22:15:08;8.43;;;3.10;;
18473;SDS011;30265;52.408;13.500;2023-01-28T22:25:34;3.15;;;1.75;;
18473;SDS011;30265;52.408;13.500;2023-01-28T22:35:56;2.80;;;2.60;;
18473;SDS011;30265;52.408;13.500;2023-01-28T22:46:20;3.65;;;2.42;;
18473;SDS011;30265;52.408;13.500;2023-01-28T22:56:42;7.88;;;2.47;;
18473;SDS011;30265;52.408;13.500;2023-01-28T23:07:05;3.53;;;2.10;;
18473;SDS011;30265;52.408;13.500;2023-01-28T23:17:27;12.15;;;3.45;;
18473;SDS011;30265;52.408;13.500;2023-01-28T23:28:07;4.75;;;3.28;;
18473;SDS011;30265;52.408;13.500;2023-01-28T23:38:29;4.78;;;2.78;;
18473;SDS011;30265;52.408;13.500;2023-01-28T23:48:52;5.68;;;3.28;;
18473;SDS011;30265;52.408;13.500;2023-01-28T23:59:14;8.05;;;4.53;;
